sensor_id;sensor_type;location;lat;lon;timestamp;P1;durP1;ratioP1;P2;durP2;ratioP2
76656;SDS011;65576;47.714;9.414;2023-04-24T00:02:17;0.65;;;0.65;;
76656;SDS011;65576;47.714;9.414;2023-04-24T00:04:43;0.40;;;0.40;;
76656;SDS011;65576;47.714;9.414;2023-04-24T00:07:10;0.65;;;0.60;;
76656;SDS011;65576;47.714;9.414;2023-04-24T00:09:35;0.82;;;0.63;;
76656;SDS011;65576;47.714;9.414;2023-04-24T00:12:01;0.55;;;0.50;;
76656;SDS011;65576;47.714;9.414;2023-04-24T00:14:29;0.35;;;0.35;;
76656;SDS011;65576;47.714;9.414;2023-04-24T00:16:54;0.25;;;0.25;;
76656;SDS011;65576;47.714;9.414;2023-04-24T00:19:19;0.68;;;0.68;;
76656;SDS011;65576;47.714;9.414;2023-04-24T00:21:46;0.28;;;0.28;;
76656;SDS011;65576;47.714;9.414;2023-04-24T00:24:11;0.45;;;0.45;;
76656;SDS011;65576;47.714;9.414;2023-04-24T00:26:36;0.65;;;0.60;;
76656;SDS011;65576;47.714;9.414;2023-04-24T00:29:02;5.88;;;0.60;;
76656;SDS011;65576;47.714;9.414;2023-04-24T00:31:27;1.17;;;0.75;;
76656;SDS011;65576;47.714;9.414;2023-04-24T00:33:52;1.77;;;0.50;;
76656;SDS011;65576;47.714;9.414;2023-04-24T00:36:18;1.02;;;0.75;;
76656;SDS011;65576;47.714;9.414;2023-04-24T00:38:45;1.08;;;0.52;;
76656;SDS011;65576;47.714;9.414;2023-04-24T00:41:10;1.20;;;0.60;;
76656;SDS011;65576;47.714;9.414;2023-04-24T00:43:36;6.93;;;0.90;;
76656;SDS011;65576;47.714;9.414;2023-04-24T00:46:01;1.35;;;0.50;;
76656;SDS011;65576;47.714;9.414;2023-04-24T00:48:26;0.73;;;0.70;;
76656;SDS011;65576;47.714;9.414;2023-04-24T00:50:52;0.60;;;0.60;;
76656;SDS011;65576;47.714;9.414;2023-04-24T00:53:18;0.60;;;0.60;;
76656;SDS011;65576;47.714;9.414;2023-04-24T00:55:43;0.50;;;0.50;;
76656;SDS011;65576;47.714;9.414;2023-04-24T00:58:08;0.65;;;0.50;;
76656;SDS011;65576;47.714;9.414;2023-04-24T01:00:34;0.50;;;0.50;;
76656;SDS011;65576;47.714;9.414;2023-04-24T01:03:00;0.52;;;0.47;;
76656;SDS011;65576;47.714;9.414;2023-04-24T01:05:26;0.60;;;0.60;;
76656;SDS011;65576;47.714;9.414;2023-04-24T01:07:52;0.70;;;0.50;;
76656;SDS011;65576;47.714;9.414;2023-04-24T01:10:17;0.90;;;0.90;;
76656;SDS011;65576;47.714;9.414;2023-04-24T01:12:42;0.40;;;0.40;;
76656;SDS011;65576;47.714;9.414;2023-04-24T01:15:08;0.65;;;0.55;;
76656;SDS011;65576;47.714;9.414;2023-04-24T01:17:34;0.38;;;0.38;;
76656;SDS011;65576;47.714;9.414;2023-04-24T01:20:00;0.30;;;0.30;;
76656;SDS011;65576;47.714;9.414;2023-04-24T01:22:25;0.35;;;0.35;;
76656;SDS011;65576;47.714;9.414;2023-04-24T01:24:51;1.35;;;0.47;;
76656;SDS011;65576;47.714;9.414;2023-04-24T01:27:17;0.50;;;0.50;;
76656;SDS011;65576;47.714;9.414;2023-04-24T01:29:43;1.75;;;0.32;;
76656;SDS011;65576;47.714;9.414;2023-04-24T01:32:09;0.77;;;0.60;;
76656;SDS011;65576;47.714;9.414;2023-04-24T01:34:34;0.47;;;0.47;;
76656;SDS011;65576;47.714;9.414;2023-04-24T01:37:00;0.60;;;0.60;;
76656;SDS011;65576;47.714;9.414;2023-04-24T01:39:25;0.52;;;0.52;;
76656;SDS011;65576;47.714;9.414;2023-04-24T01:41:53;0.88;;;0.70;;
76656;SDS011;65576;47.714;9.414;2023-04-24T01:44:18;1.88;;;0.57;;
76656;SDS011;65576;47.714;9.414;2023-04-24T01:46:44;0.40;;;0.40;;
76656;SDS011;65576;47.714;9.414;2023-04-24T01:49:09;1.23;;;0.80;;
76656;SDS011;65576;47.714;9.414;2023-04-24T01:51:35;0.30;;;0.30;;
76656;SDS011;65576;47.714;9.414;2023-04-24T01:54:01;1.10;;;0.50;;
76656;SDS011;65576;47.714;9.414;2023-04-24T01:56:26;0.75;;;0.70;;
76656;SDS011;65576;47.714;9.414;2023-04-24T01:58:53;0.43;;;0.43;;
76656;SDS011;65576;47.714;9.414;2023-04-24T02:01:20;0.40;;;0.40;;
76656;SDS011;65576;47.714;9.414;2023-04-24T02:03:45;0.30;;;0.30;;
76656;SDS011;65576;47.714;9.414;2023-04-24T02:06:11;0.95;;;0.38;;
76656;SDS011;65576;47.714;9.414;2023-04-24T02:08:36;2.38;;;0.60;;
76656;SDS011;65576;47.714;9.414;2023-04-24T02:11:01;0.43;;;0.40;;
76656;SDS011;65576;47.714;9.414;2023-04-24T02:13:27;0.22;;;0.22;;
76656;SDS011;65576;47.714;9.414;2023-04-24T02:15:52;0.50;;;0.50;;
76656;SDS011;65576;47.714;9.414;2023-04-24T02:18:18;0.30;;;0.30;;
76656;SDS011;65576;47.714;9.414;2023-04-24T02:20:43;0.40;;;0.40;;
76656;SDS011;65576;47.714;9.414;2023-04-24T02:23:08;1.33;;;0.60;;
76656;SDS011;65576;47.714;9.414;2023-04-24T02:25:34;0.25;;;0.25;;
76656;SDS011;65576;47.714;9.414;2023-04-24T02:27:59;0.32;;;0.32;;
76656;SDS011;65576;47.714;9.414;2023-04-24T02:30:24;0.30;;;0.20;;
76656;SDS011;65576;47.714;9.414;2023-04-24T02:32:50;0.98;;;0.40;;
76656;SDS011;65576;47.714;9.414;2023-04-24T02:35:15;0.22;;;0.22;;
76656;SDS011;65576;47.714;9.414;2023-04-24T02:37:40;0.57;;;0.40;;
76656;SDS011;65576;47.714;9.414;2023-04-24T02:40:06;0.35;;;0.30;;
76656;SDS011;65576;47.714;9.414;2023-04-24T02:42:32;1.33;;;0.50;;
76656;SDS011;65576;47.714;9.414;2023-04-24T02:44:57;0.30;;;0.25;;
76656;SDS011;65576;47.714;9.414;2023-04-24T02:47:23;0.22;;;0.22;;
76656;SDS011;65576;47.714;9.414;2023-04-24T02:49:48;0.20;;;0.20;;
76656;SDS011;65576;47.714;9.414;2023-04-24T02:52:13;0.20;;;0.20;;
76656;SDS011;65576;47.714;9.414;2023-04-24T02:54:39;0.10;;;0.10;;
76656;SDS011;65576;47.714;9.414;2023-04-24T02:57:05;0.40;;;0.40;;
76656;SDS011;65576;47.714;9.414;2023-04-24T02:59:31;0.20;;;0.20;;
76656;SDS011;65576;47.714;9.414;2023-04-24T03:01:56;0.20;;;0.20;;
76656;SDS011;65576;47.714;9.414;2023-04-24T03:04:22;0.20;;;0.20;;
76656;SDS011;65576;47.714;9.414;2023-04-24T03:06:47;0.40;;;0.40;;
76656;SDS011;65576;47.714;9.414;2023-04-24T03:09:13;0.68;;;0.50;;
76656;SDS011;65576;47.714;9.414;2023-04-24T03:11:38;0.30;;;0.30;;
76656;SDS011;65576;47.714;9.414;2023-04-24T03:14:03;0.35;;;0.25;;
76656;SDS011;65576;47.714;9.414;2023-04-24T03:16:28;0.28;;;0.28;;
76656;SDS011;65576;47.714;9.414;2023-04-24T03:18:54;0.85;;;0.38;;
76656;SDS011;65576;47.714;9.414;2023-04-24T03:21:19;0.30;;;0.30;;
76656;SDS011;65576;47.714;9.414;2023-04-24T03:23:45;0.20;;;0.20;;
76656;SDS011;65576;47.714;9.414;2023-04-24T03:26:10;0.30;;;0.30;;
76656;SDS011;65576;47.714;9.414;2023-04-24T03:28:35;0.15;;;0.15;;
76656;SDS011;65576;47.714;9.414;2023-04-24T03:31:00;0.17;;;0.17;;
76656;SDS011;65576;47.714;9.414;2023-04-24T03:33:27;0.32;;;0.30;;
76656;SDS011;65576;47.714;9.414;2023-04-24T03:35:53;0.20;;;0.20;;
76656;SDS011;65576;47.714;9.414;2023-04-24T03:38:18;0.20;;;0.20;;
76656;SDS011;65576;47.714;9.414;2023-04-24T03:40:43;0.28;;;0.28;;
76656;SDS011;65576;47.714;9.414;2023-04-24T03:43:08;1.20;;;0.40;;
76656;SDS011;65576;47.714;9.414;2023-04-24T03:45:34;0.70;;;0.25;;
76656;SDS011;65576;47.714;9.414;2023-04-24T03:47:59;0.30;;;0.30;;
76656;SDS011;65576;47.714;9.414;2023-04-24T03:50:24;0.40;;;0.20;;
76656;SDS011;65576;47.714;9.414;2023-04-24T03:52:51;0.20;;;0.20;;
76656;SDS011;65576;47.714;9.414;2023-04-24T03:55:16;0.20;;;0.20;;
76656;SDS011;65576;47.714;9.414;2023-04-24T03:57:42;0.52;;;0.43;;
76656;SDS011;65576;47.714;9.414;2023-04-24T04:00:07;0.28;;;0.20;;
76656;SDS011;65576;47.714;9.414;2023-04-24T04:02:33;0.28;;;0.28;;
76656;SDS011;65576;47.714;9.414;2023-04-24T04:04:59;0.17;;;0.17;;
76656;SDS011;65576;47.714;9.414;2023-04-24T04:07:24;3.28;;;0.17;;
76656;SDS011;65576;47.714;9.414;2023-04-24T04:09:50;0.20;;;0.20;;
76656;SDS011;65576;47.714;9.414;2023-04-24T04:12:15;0.20;;;0.20;;
76656;SDS011;65576;47.714;9.414;2023-04-24T04:14:41;0.20;;;0.20;;
76656;SDS011;65576;47.714;9.414;2023-04-24T04:17:06;0.10;;;0.10;;
76656;SDS011;65576;47.714;9.414;2023-04-24T04:19:32;0.13;;;0.13;;
76656;SDS011;65576;47.714;9.414;2023-04-24T04:21:57;0.10;;;0.10;;
76656;SDS011;65576;47.714;9.414;2023-04-24T04:24:22;1.45;;;0.40;;
76656;SDS011;65576;47.714;9.414;2023-04-24T04:26:48;0.50;;;0.17;;
76656;SDS011;65576;47.714;9.414;2023-04-24T04:29:15;0.30;;;0.10;;
76656;SDS011;65576;47.714;9.414;2023-04-24T04:31:41;0.00;;;0.00;;
76656;SDS011;65576;47.714;9.414;2023-04-24T04:34:06;0.10;;;0.10;;
76656;SDS011;65576;47.714;9.414;2023-04-24T04:36:32;0.20;;;0.20;;
76656;SDS011;65576;47.714;9.414;2023-04-24T04:39:01;0.22;;;0.22;;
76656;SDS011;65576;47.714;9.414;2023-04-24T04:41:28;0.10;;;0.10;;
76656;SDS011;65576;47.714;9.414;2023-04-24T04:43:54;0.30;;;0.30;;
76656;SDS011;65576;47.714;9.414;2023-04-24T04:46:19;0.20;;;0.20;;
76656;SDS011;65576;47.714;9.414;2023-04-24T04:48:45;1.08;;;0.25;;
76656;SDS011;65576;47.714;9.414;2023-04-24T04:51:10;0.43;;;0.35;;
76656;SDS011;65576;47.714;9.414;2023-04-24T04:53:36;0.10;;;0.10;;
76656;SDS011;65576;47.714;9.414;2023-04-24T04:56:01;0.10;;;0.10;;
76656;SDS011;65576;47.714;9.414;2023-04-24T04:58:26;0.20;;;0.20;;
76656;SDS011;65576;47.714;9.414;2023-04-24T05:00:51;4.90;;;0.30;;
76656;SDS011;65576;47.714;9.414;2023-04-24T05:03:17;0.20;;;0.20;;
76656;SDS011;65576;47.714;9.414;2023-04-24T05:05:42;0.10;;;0.10;;
76656;SDS011;65576;47.714;9.414;2023-04-24T05:08:08;0.10;;;0.10;;
76656;SDS011;65576;47.714;9.414;2023-04-24T05:10:33;0.20;;;0.20;;
76656;SDS011;65576;47.714;9.414;2023-04-24T05:12:58;0.10;;;0.10;;
76656;SDS011;65576;47.714;9.414;2023-04-24T05:15:23;0.20;;;0.20;;
76656;SDS011;65576;47.714;9.414;2023-04-24T05:17:49;0.93;;;0.40;;
76656;SDS011;65576;47.714;9.414;2023-04-24T05:20:14;1.35;;;0.45;;
76656;SDS011;65576;47.714;9.414;2023-04-24T05:22:40;0.22;;;0.22;;
76656;SDS011;65576;47.714;9.414;2023-04-24T05:25:05;0.70;;;0.47;;
76656;SDS011;65576;47.714;9.414;2023-04-24T05:27:31;0.40;;;0.40;;
76656;SDS011;65576;47.714;9.414;2023-04-24T05:29:56;2.22;;;1.30;;
76656;SDS011;65576;47.714;9.414;2023-04-24T05:32:21;1.27;;;0.93;;
76656;SDS011;65576;47.714;9.414;2023-04-24T05:34:46;0.50;;;0.50;;
76656;SDS011;65576;47.714;9.414;2023-04-24T05:37:12;0.90;;;0.22;;
76656;SDS011;65576;47.714;9.414;2023-04-24T05:39:37;0.17;;;0.17;;
76656;SDS011;65576;47.714;9.414;2023-04-24T05:42:03;9.75;;;0.43;;
76656;SDS011;65576;47.714;9.414;2023-04-24T05:44:29;0.38;;;0.28;;
76656;SDS011;65576;47.714;9.414;2023-04-24T05:46:54;0.80;;;0.40;;
76656;SDS011;65576;47.714;9.414;2023-04-24T05:49:23;0.10;;;0.10;;
76656;SDS011;65576;47.714;9.414;2023-04-24T05:51:48;0.20;;;0.20;;
76656;SDS011;65576;47.714;9.414;2023-04-24T05:54:13;0.25;;;0.25;;
76656;SDS011;65576;47.714;9.414;2023-04-24T05:56:39;0.40;;;0.32;;
76656;SDS011;65576;47.714;9.414;2023-04-24T05:59:04;1.45;;;0.45;;
76656;SDS011;65576;47.714;9.414;2023-04-24T06:01:29;1.17;;;0.40;;
76656;SDS011;65576;47.714;9.414;2023-04-24T06:03:56;0.17;;;0.17;;
76656;SDS011;65576;47.714;9.414;2023-04-24T06:06:21;4.93;;;0.28;;
76656;SDS011;65576;47.714;9.414;2023-04-24T06:08:47;5.82;;;0.45;;
76656;SDS011;65576;47.714;9.414;2023-04-24T06:11:12;0.10;;;0.10;;
76656;SDS011;65576;47.714;9.414;2023-04-24T06:13:37;0.20;;;0.20;;
76656;SDS011;65576;47.714;9.414;2023-04-24T06:16:02;0.00;;;0.00;;
76656;SDS011;65576;47.714;9.414;2023-04-24T06:18:28;0.13;;;0.13;;
76656;SDS011;65576;47.714;9.414;2023-04-24T06:20:53;0.20;;;0.20;;
76656;SDS011;65576;47.714;9.414;2023-04-24T06:23:20;0.20;;;0.20;;
76656;SDS011;65576;47.714;9.414;2023-04-24T06:25:45;0.50;;;0.38;;
76656;SDS011;65576;47.714;9.414;2023-04-24T06:28:10;0.20;;;0.20;;
76656;SDS011;65576;47.714;9.414;2023-04-24T06:30:35;0.40;;;0.40;;
76656;SDS011;65576;47.714;9.414;2023-04-24T06:33:01;0.20;;;0.20;;
76656;SDS011;65576;47.714;9.414;2023-04-24T06:35:26;0.20;;;0.20;;
76656;SDS011;65576;47.714;9.414;2023-04-24T06:37:51;0.10;;;0.10;;
76656;SDS011;65576;47.714;9.414;2023-04-24T06:40:16;0.03;;;0.03;;
76656;SDS011;65576;47.714;9.414;2023-04-24T06:42:43;0.80;;;0.40;;
76656;SDS011;65576;47.714;9.414;2023-04-24T06:45:09;0.38;;;0.38;;
76656;SDS011;65576;47.714;9.414;2023-04-24T06:47:34;2.05;;;0.40;;
76656;SDS011;65576;47.714;9.414;2023-04-24T06:50:00;0.40;;;0.40;;
76656;SDS011;65576;47.714;9.414;2023-04-24T06:52:25;0.98;;;0.45;;
76656;SDS011;65576;47.714;9.414;2023-04-24T06:54:50;3.25;;;0.82;;
76656;SDS011;65576;47.714;9.414;2023-04-24T06:57:15;0.93;;;0.68;;
76656;SDS011;65576;47.714;9.414;2023-04-24T06:59:41;0.30;;;0.30;;
76656;SDS011;65576;47.714;9.414;2023-04-24T07:02:07;0.30;;;0.30;;
76656;SDS011;65576;47.714;9.414;2023-04-24T07:04:32;0.55;;;0.40;;
76656;SDS011;65576;47.714;9.414;2023-04-24T07:06:57;0.68;;;0.55;;
76656;SDS011;65576;47.714;9.414;2023-04-24T07:09:23;2.20;;;0.60;;
76656;SDS011;65576;47.714;9.414;2023-04-24T07:11:50;0.80;;;0.50;;
76656;SDS011;65576;47.714;9.414;2023-04-24T07:14:16;0.32;;;0.32;;
76656;SDS011;65576;47.714;9.414;2023-04-24T07:16:42;1.02;;;0.80;;
76656;SDS011;65576;47.714;9.414;2023-04-24T07:19:07;1.75;;;0.98;;
76656;SDS011;65576;47.714;9.414;2023-04-24T07:21:32;1.20;;;1.10;;
76656;SDS011;65576;47.714;9.414;2023-04-24T07:23:58;1.67;;;0.80;;
76656;SDS011;65576;47.714;9.414;2023-04-24T07:26:24;0.40;;;0.40;;
76656;SDS011;65576;47.714;9.414;2023-04-24T07:28:50;1.23;;;0.70;;
76656;SDS011;65576;47.714;9.414;2023-04-24T07:31:15;0.77;;;0.77;;
76656;SDS011;65576;47.714;9.414;2023-04-24T07:33:41;5.68;;;1.02;;
76656;SDS011;65576;47.714;9.414;2023-04-24T07:36:06;0.85;;;0.77;;
76656;SDS011;65576;47.714;9.414;2023-04-24T07:38:31;0.52;;;0.52;;
76656;SDS011;65576;47.714;9.414;2023-04-24T07:40:57;0.55;;;0.55;;
76656;SDS011;65576;47.714;9.414;2023-04-24T07:43:22;0.60;;;0.60;;
76656;SDS011;65576;47.714;9.414;2023-04-24T07:45:48;0.82;;;0.40;;
76656;SDS011;65576;47.714;9.414;2023-04-24T07:48:14;3.55;;;1.48;;
76656;SDS011;65576;47.714;9.414;2023-04-24T07:50:41;0.80;;;0.80;;
76656;SDS011;65576;47.714;9.414;2023-04-24T07:53:07;0.80;;;0.80;;
76656;SDS011;65576;47.714;9.414;2023-04-24T07:55:32;0.73;;;0.65;;
76656;SDS011;65576;47.714;9.414;2023-04-24T07:57:57;2.50;;;1.20;;
76656;SDS011;65576;47.714;9.414;2023-04-24T08:00:22;1.65;;;0.95;;
76656;SDS011;65576;47.714;9.414;2023-04-24T08:02:48;1.27;;;0.90;;
76656;SDS011;65576;47.714;9.414;2023-04-24T08:05:13;4.25;;;1.58;;
76656;SDS011;65576;47.714;9.414;2023-04-24T08:07:38;5.60;;;1.50;;
76656;SDS011;65576;47.714;9.414;2023-04-24T08:10:04;5.88;;;0.80;;
76656;SDS011;65576;47.714;9.414;2023-04-24T08:12:30;0.90;;;0.90;;
76656;SDS011;65576;47.714;9.414;2023-04-24T08:14:55;1.05;;;0.90;;
76656;SDS011;65576;47.714;9.414;2023-04-24T08:17:20;0.73;;;0.60;;
76656;SDS011;65576;47.714;9.414;2023-04-24T08:19:46;0.60;;;0.60;;
76656;SDS011;65576;47.714;9.414;2023-04-24T08:22:15;3.85;;;1.08;;
76656;SDS011;65576;47.714;9.414;2023-04-24T08:24:41;1.52;;;0.93;;
76656;SDS011;65576;47.714;9.414;2023-04-24T08:27:06;1.02;;;0.63;;
76656;SDS011;65576;47.714;9.414;2023-04-24T08:29:32;1.23;;;0.65;;
76656;SDS011;65576;47.714;9.414;2023-04-24T08:31:57;0.80;;;0.80;;
76656;SDS011;65576;47.714;9.414;2023-04-24T08:34:22;1.02;;;0.70;;
76656;SDS011;65576;47.714;9.414;2023-04-24T08:36:48;0.70;;;0.70;;
76656;SDS011;65576;47.714;9.414;2023-04-24T08:39:13;0.60;;;0.60;;
76656;SDS011;65576;47.714;9.414;2023-04-24T08:41:40;1.83;;;0.88;;
76656;SDS011;65576;47.714;9.414;2023-04-24T08:44:07;0.50;;;0.50;;
76656;SDS011;65576;47.714;9.414;2023-04-24T08:46:34;0.50;;;0.50;;
76656;SDS011;65576;47.714;9.414;2023-04-24T08:48:59;0.70;;;0.70;;
76656;SDS011;65576;47.714;9.414;2023-04-24T08:51:24;0.95;;;0.82;;
76656;SDS011;65576;47.714;9.414;2023-04-24T08:53:51;1.10;;;0.80;;
76656;SDS011;65576;47.714;9.414;2023-04-24T08:56:18;0.43;;;0.43;;
76656;SDS011;65576;47.714;9.414;2023-04-24T08:58:44;0.65;;;0.60;;
76656;SDS011;65576;47.714;9.414;2023-04-24T09:01:09;0.35;;;0.35;;
76656;SDS011;65576;47.714;9.414;2023-04-24T09:03:35;0.50;;;0.50;;
76656;SDS011;65576;47.714;9.414;2023-04-24T09:06:00;1.17;;;0.75;;
76656;SDS011;65576;47.714;9.414;2023-04-24T09:08:26;1.85;;;1.10;;
76656;SDS011;65576;47.714;9.414;2023-04-24T09:10:53;1.08;;;0.73;;
76656;SDS011;65576;47.714;9.414;2023-04-24T09:13:18;5.85;;;0.52;;
76656;SDS011;65576;47.714;9.414;2023-04-24T09:15:45;0.65;;;0.65;;
76656;SDS011;65576;47.714;9.414;2023-04-24T09:18:10;0.50;;;0.50;;
76656;SDS011;65576;47.714;9.414;2023-04-24T09:20:51;0.80;;;0.60;;
76656;SDS011;65576;47.714;9.414;2023-04-24T09:23:28;0.98;;;0.75;;
76656;SDS011;65576;47.714;9.414;2023-04-24T09:25:57;1.10;;;0.68;;
76656;SDS011;65576;47.714;9.414;2023-04-24T09:28:30;0.70;;;0.68;;
76656;SDS011;65576;47.714;9.414;2023-04-24T09:33:28;0.75;;;0.75;;
76656;SDS011;65576;47.714;9.414;2023-04-24T09:35:54;3.72;;;0.77;;
76656;SDS011;65576;47.714;9.414;2023-04-24T09:38:20;0.50;;;0.50;;
76656;SDS011;65576;47.714;9.414;2023-04-24T09:40:57;0.63;;;0.43;;
76656;SDS011;65576;47.714;9.414;2023-04-24T09:43:25;1.20;;;0.80;;
76656;SDS011;65576;47.714;9.414;2023-04-24T09:45:51;3.00;;;0.57;;
76656;SDS011;65576;47.714;9.414;2023-04-24T09:48:29;5.97;;;1.33;;
76656;SDS011;65576;47.714;9.414;2023-04-24T09:50:55;0.90;;;0.82;;
76656;SDS011;65576;47.714;9.414;2023-04-24T09:53:23;0.63;;;0.63;;
76656;SDS011;65576;47.714;9.414;2023-04-24T09:55:49;0.68;;;0.68;;
76656;SDS011;65576;47.714;9.414;2023-04-24T09:58:15;0.90;;;0.70;;
76656;SDS011;65576;47.714;9.414;2023-04-24T10:00:40;1.42;;;0.38;;
76656;SDS011;65576;47.714;9.414;2023-04-24T10:03:06;0.47;;;0.47;;
76656;SDS011;65576;47.714;9.414;2023-04-24T10:05:34;0.45;;;0.45;;
76656;SDS011;65576;47.714;9.414;2023-04-24T10:08:08;0.60;;;0.60;;
76656;SDS011;65576;47.714;9.414;2023-04-24T10:10:37;17.45;;;1.30;;
76656;SDS011;65576;47.714;9.414;2023-04-24T10:13:04;1.05;;;0.50;;
76656;SDS011;65576;47.714;9.414;2023-04-24T10:15:29;1.70;;;0.95;;
76656;SDS011;65576;47.714;9.414;2023-04-24T10:17:55;0.73;;;0.45;;
76656;SDS011;65576;47.714;9.414;2023-04-24T10:20:24;0.88;;;0.73;;
76656;SDS011;65576;47.714;9.414;2023-04-24T10:22:52;1.33;;;0.80;;
76656;SDS011;65576;47.714;9.414;2023-04-24T10:25:18;4.75;;;1.00;;
76656;SDS011;65576;47.714;9.414;2023-04-24T10:27:45;2.47;;;0.90;;
76656;SDS011;65576;47.714;9.414;2023-04-24T10:30:11;1.10;;;1.00;;
76656;SDS011;65576;47.714;9.414;2023-04-24T10:32:37;0.98;;;0.88;;
76656;SDS011;65576;47.714;9.414;2023-04-24T10:35:02;1.00;;;1.00;;
76656;SDS011;65576;47.714;9.414;2023-04-24T10:37:28;2.83;;;0.65;;
76656;SDS011;65576;47.714;9.414;2023-04-24T10:39:54;0.50;;;0.50;;
76656;SDS011;65576;47.714;9.414;2023-04-24T10:42:20;2.05;;;0.90;;
76656;SDS011;65576;47.714;9.414;2023-04-24T10:44:47;0.30;;;0.30;;
76656;SDS011;65576;47.714;9.414;2023-04-24T10:47:13;1.25;;;0.70;;
76656;SDS011;65576;47.714;9.414;2023-04-24T10:49:39;0.60;;;0.52;;
76656;SDS011;65576;47.714;9.414;2023-04-24T10:52:05;1.50;;;0.80;;
76656;SDS011;65576;47.714;9.414;2023-04-24T10:59:42;0.73;;;0.60;;
76656;SDS011;65576;47.714;9.414;2023-04-24T11:02:08;1.10;;;0.70;;
76656;SDS011;65576;47.714;9.414;2023-04-24T11:04:34;1.30;;;0.55;;
76656;SDS011;65576;47.714;9.414;2023-04-24T11:07:02;1.25;;;0.50;;
76656;SDS011;65576;47.714;9.414;2023-04-24T11:09:28;0.68;;;0.68;;
76656;SDS011;65576;47.714;9.414;2023-04-24T11:12:08;0.52;;;0.52;;
76656;SDS011;65576;47.714;9.414;2023-04-24T11:20:02;4.55;;;0.70;;
76656;SDS011;65576;47.714;9.414;2023-04-24T11:22:35;1.33;;;0.90;;
76656;SDS011;65576;47.714;9.414;2023-04-24T11:25:01;0.80;;;0.80;;
76656;SDS011;65576;47.714;9.414;2023-04-24T11:27:29;0.40;;;0.40;;
76656;SDS011;65576;47.714;9.414;2023-04-24T11:35:02;0.98;;;0.60;;
76656;SDS011;65576;47.714;9.414;2023-04-24T11:37:34;0.70;;;0.63;;
76656;SDS011;65576;47.714;9.414;2023-04-24T11:42:26;1.25;;;1.05;;
76656;SDS011;65576;47.714;9.414;2023-04-24T11:44:53;0.77;;;0.70;;
76656;SDS011;65576;47.714;9.414;2023-04-24T11:47:20;1.13;;;1.02;;
76656;SDS011;65576;47.714;9.414;2023-04-24T11:49:45;0.75;;;0.75;;
76656;SDS011;65576;47.714;9.414;2023-04-24T11:52:11;4.60;;;1.00;;
76656;SDS011;65576;47.714;9.414;2023-04-24T11:54:46;1.80;;;1.08;;
76656;SDS011;65576;47.714;9.414;2023-04-24T11:57:13;0.73;;;0.57;;
76656;SDS011;65576;47.714;9.414;2023-04-24T11:59:38;0.57;;;0.57;;
76656;SDS011;65576;47.714;9.414;2023-04-24T12:02:03;6.32;;;1.00;;
76656;SDS011;65576;47.714;9.414;2023-04-24T12:04:37;0.47;;;0.47;;
76656;SDS011;65576;47.714;9.414;2023-04-24T12:07:03;0.73;;;0.73;;
76656;SDS011;65576;47.714;9.414;2023-04-24T12:09:40;0.70;;;0.70;;
76656;SDS011;65576;47.714;9.414;2023-04-24T12:12:25;0.80;;;0.80;;
76656;SDS011;65576;47.714;9.414;2023-04-24T12:14:58;0.65;;;0.65;;
76656;SDS011;65576;47.714;9.414;2023-04-24T12:17:24;0.75;;;0.70;;
76656;SDS011;65576;47.714;9.414;2023-04-24T12:19:50;1.75;;;1.45;;
76656;SDS011;65576;47.714;9.414;2023-04-24T12:22:15;6.47;;;0.90;;
76656;SDS011;65576;47.714;9.414;2023-04-24T12:27:28;0.82;;;0.60;;
76656;SDS011;65576;47.714;9.414;2023-04-24T12:29:55;1.45;;;0.80;;
76656;SDS011;65576;47.714;9.414;2023-04-24T12:32:21;0.85;;;0.85;;
76656;SDS011;65576;47.714;9.414;2023-04-24T12:34:46;4.07;;;1.13;;
76656;SDS011;65576;47.714;9.414;2023-04-24T12:37:11;0.95;;;0.88;;
76656;SDS011;65576;47.714;9.414;2023-04-24T12:39:37;0.73;;;0.65;;
76656;SDS011;65576;47.714;9.414;2023-04-24T12:42:02;2.88;;;1.23;;
76656;SDS011;65576;47.714;9.414;2023-04-24T12:44:31;1.20;;;0.65;;
76656;SDS011;65576;47.714;9.414;2023-04-24T12:46:59;1.60;;;1.00;;
76656;SDS011;65576;47.714;9.414;2023-04-24T12:49:24;7.70;;;0.80;;
76656;SDS011;65576;47.714;9.414;2023-04-24T12:51:49;1.58;;;1.17;;
76656;SDS011;65576;47.714;9.414;2023-04-24T12:54:15;1.10;;;1.00;;
76656;SDS011;65576;47.714;9.414;2023-04-24T12:56:40;1.02;;;0.85;;
76656;SDS011;65576;47.714;9.414;2023-04-24T12:59:05;0.98;;;0.98;;
76656;SDS011;65576;47.714;9.414;2023-04-24T13:01:31;2.35;;;1.40;;
76656;SDS011;65576;47.714;9.414;2023-04-24T13:03:56;4.00;;;0.98;;
76656;SDS011;65576;47.714;9.414;2023-04-24T13:06:21;0.98;;;0.93;;
76656;SDS011;65576;47.714;9.414;2023-04-24T13:08:46;0.88;;;0.88;;
76656;SDS011;65576;47.714;9.414;2023-04-24T13:11:13;1.75;;;0.60;;
76656;SDS011;65576;47.714;9.414;2023-04-24T13:13:38;3.58;;;0.93;;
76656;SDS011;65576;47.714;9.414;2023-04-24T13:16:04;0.93;;;0.77;;
76656;SDS011;65576;47.714;9.414;2023-04-24T13:18:29;1.10;;;0.70;;
76656;SDS011;65576;47.714;9.414;2023-04-24T13:20:55;0.50;;;0.50;;
76656;SDS011;65576;47.714;9.414;2023-04-24T13:23:20;1.55;;;0.73;;
76656;SDS011;65576;47.714;9.414;2023-04-24T13:25:46;1.02;;;0.73;;
76656;SDS011;65576;47.714;9.414;2023-04-24T13:28:12;0.60;;;0.60;;
76656;SDS011;65576;47.714;9.414;2023-04-24T13:30:37;1.27;;;0.82;;
76656;SDS011;65576;47.714;9.414;2023-04-24T13:33:02;2.28;;;0.88;;
76656;SDS011;65576;47.714;9.414;2023-04-24T13:35:28;0.68;;;0.65;;
76656;SDS011;65576;47.714;9.414;2023-04-24T13:37:53;1.85;;;0.80;;
76656;SDS011;65576;47.714;9.414;2023-04-24T13:40:18;1.88;;;1.05;;
76656;SDS011;65576;47.714;9.414;2023-04-24T13:42:43;1.23;;;0.70;;
76656;SDS011;65576;47.714;9.414;2023-04-24T13:45:09;2.10;;;0.63;;
76656;SDS011;65576;47.714;9.414;2023-04-24T13:47:35;1.88;;;0.98;;
76656;SDS011;65576;47.714;9.414;2023-04-24T13:50:01;3.25;;;1.33;;
76656;SDS011;65576;47.714;9.414;2023-04-24T13:52:26;0.70;;;0.60;;
76656;SDS011;65576;47.714;9.414;2023-04-24T13:54:51;0.80;;;0.80;;
76656;SDS011;65576;47.714;9.414;2023-04-24T13:57:16;0.60;;;0.60;;
76656;SDS011;65576;47.714;9.414;2023-04-24T13:59:42;0.85;;;0.80;;
76656;SDS011;65576;47.714;9.414;2023-04-24T14:02:07;1.10;;;1.00;;
76656;SDS011;65576;47.714;9.414;2023-04-24T14:04:33;0.60;;;0.60;;
76656;SDS011;65576;47.714;9.414;2023-04-24T14:06:58;0.57;;;0.57;;
76656;SDS011;65576;47.714;9.414;2023-04-24T14:09:23;0.90;;;0.85;;
76656;SDS011;65576;47.714;9.414;2023-04-24T14:11:48;0.80;;;0.80;;
76656;SDS011;65576;47.714;9.414;2023-04-24T14:14:13;0.70;;;0.70;;
76656;SDS011;65576;47.714;9.414;2023-04-24T14:16:39;1.13;;;0.93;;
76656;SDS011;65576;47.714;9.414;2023-04-24T14:19:04;1.20;;;0.90;;
76656;SDS011;65576;47.714;9.414;2023-04-24T14:21:31;1.10;;;0.77;;
76656;SDS011;65576;47.714;9.414;2023-04-24T14:23:56;1.35;;;1.20;;
76656;SDS011;65576;47.714;9.414;2023-04-24T14:26:21;0.70;;;0.70;;
76656;SDS011;65576;47.714;9.414;2023-04-24T14:28:46;1.67;;;0.70;;
76656;SDS011;65576;47.714;9.414;2023-04-24T14:31:12;0.80;;;0.80;;
76656;SDS011;65576;47.714;9.414;2023-04-24T14:33:37;1.10;;;1.00;;
76656;SDS011;65576;47.714;9.414;2023-04-24T14:36:02;0.80;;;0.80;;
76656;SDS011;65576;47.714;9.414;2023-04-24T14:38:29;0.70;;;0.70;;
76656;SDS011;65576;47.714;9.414;2023-04-24T14:40:56;0.93;;;0.80;;
76656;SDS011;65576;47.714;9.414;2023-04-24T14:43:21;2.20;;;1.00;;
76656;SDS011;65576;47.714;9.414;2023-04-24T14:45:46;2.63;;;1.05;;
76656;SDS011;65576;47.714;9.414;2023-04-24T14:48:12;0.52;;;0.52;;
76656;SDS011;65576;47.714;9.414;2023-04-24T14:50:37;7.18;;;0.80;;
76656;SDS011;65576;47.714;9.414;2023-04-24T14:53:02;0.70;;;0.70;;
76656;SDS011;65576;47.714;9.414;2023-04-24T14:55:27;6.28;;;0.90;;
76656;SDS011;65576;47.714;9.414;2023-04-24T14:57:53;1.05;;;0.82;;
76656;SDS011;65576;47.714;9.414;2023-04-24T15:00:19;3.97;;;1.10;;
76656;SDS011;65576;47.714;9.414;2023-04-24T15:02:45;0.68;;;0.63;;
76656;SDS011;65576;47.714;9.414;2023-04-24T15:05:10;0.63;;;0.63;;